Time;durP1;ratioP1;P1;durP2;ratioP2;P2;SDS_P1;SDS_P2;PMS_P1;PMS_P2;Temp;Humidity;BMP_temperature;BMP_pressure;BME280_temperature;BME280_humidity;BME280_pressure;Samples;Min_cycle;Max_cycle;Signal;HPM_P1;HPM_P2
2021/03/12 00:00:22;;;;;;;13.43;3.78;;;7.30;99.90;;;;;;5015298;28;20544;-83
2021/03/12 00:02:48;;;;;;;17.00;2.65;;;7.30;99.90;;;;;;4992424;28;20088;-85
2021/03/12 00:05:15;;;;;;;17.30;2.55;;;7.30;99.90;;;;;;4991254;28;20037;-83
2021/03/12 00:07:40;;;;;;;15.95;2.45;;;7.30;99.90;;;;;;5014011;28;20042;-83
2021/03/12 00:10:11;;;;;;;15.15;2.60;;;7.30;99.90;;;;;;4991489;28;20586;-84
2021/03/12 00:12:36;;;;;;;15.18;2.72;;;7.30;99.90;;;;;;4998176;28;20502;-84
2021/03/12 00:15:15;;;;;;;20.23;3.65;;;7.40;99.90;;;;;;5008362;28;20071;-83
2021/03/12 00:17:42;;;;;;;15.27;2.20;;;7.40;99.90;;;;;;4999984;28;20105;-85
2021/03/12 00:20:27;;;;;;;13.95;2.00;;;7.40;99.90;;;;;;5017074;28;20048;-84
2021/03/12 00:22:52;;;;;;;12.35;2.47;;;7.40;99.90;;;;;;5018935;28;20590;-83
2021/03/12 00:25:33;;;;;;;13.30;2.15;;;7.40;99.90;;;;;;5007943;28;20035;-84
2021/03/12 00:27:59;;;;;;;9.57;1.80;;;7.30;99.90;;;;;;5006560;28;20099;-81
2021/03/12 00:30:24;;;;;;;12.23;2.42;;;7.40;99.90;;;;;;4995566;28;20041;-83
2021/03/12 00:32:50;;;;;;;17.98;2.72;;;7.30;99.90;;;;;;4992726;28;20483;-84
2021/03/12 00:35:16;;;;;;;15.50;2.22;;;7.30;99.90;;;;;;4994969;28;20056;-84
2021/03/12 00:37:42;;;;;;;13.52;2.45;;;7.30;99.90;;;;;;5025962;28;20499;-83
2021/03/12 00:40:10;;;;;;;16.05;2.67;;;7.30;99.90;;;;;;5007170;28;20132;-83
2021/03/12 00:42:36;;;;;;;8.88;2.40;;;7.30;99.90;;;;;;5018231;28;20549;-83
2021/03/12 00:45:02;;;;;;;12.40;2.35;;;7.30;99.90;;;;;;5009278;28;20113;-83
2021/03/12 00:47:28;;;;;;;13.77;2.28;;;7.30;99.90;;;;;;5008825;28;20046;-84
2021/03/12 00:49:53;;;;;;;10.43;2.25;;;7.30;99.90;;;;;;5008581;28;20049;-84
2021/03/12 00:52:19;;;;;;;10.45;2.50;;;7.20;99.90;;;;;;5008530;28;20045;-83
2021/03/12 00:54:44;;;;;;;13.02;2.42;;;7.30;99.90;;;;;;5009711;28;20046;-83
2021/03/12 00:57:10;;;;;;;8.52;2.22;;;7.30;99.90;;;;;;4991182;28;20081;-83
2021/03/12 00:59:36;;;;;;;8.23;2.50;;;7.20;99.90;;;;;;5008714;28;20515;-85
2021/03/12 01:02:01;;;;;;;7.93;2.40;;;7.20;99.90;;;;;;4991346;28;20203;-84
2021/03/12 01:04:27;;;;;;;14.82;3.17;;;7.20;99.90;;;;;;4991015;28;20399;-83
2021/03/12 01:06:53;;;;;;;19.15;2.42;;;7.20;99.90;;;;;;4992205;28;20090;-84
2021/03/12 01:09:18;;;;;;;9.35;2.95;;;7.20;99.90;;;;;;4991279;28;20061;-84
2021/03/12 01:11:44;;;;;;;9.60;2.72;;;7.20;99.90;;;;;;4990611;28;20030;-83
2021/03/12 01:14:10;;;;;;;8.82;2.10;;;7.10;99.90;;;;;;4990830;28;20049;-83
2021/03/12 01:16:35;;;;;;;14.68;3.10;;;7.20;99.90;;;;;;5009145;28;20113;-84
2021/03/12 01:19:01;;;;;;;10.50;2.03;;;7.10;99.90;;;;;;5009300;28;20103;-84
2021/03/12 01:21:26;;;;;;;13.50;2.80;;;7.10;99.90;;;;;;5014759;28;20017;-85
2021/03/12 01:23:52;;;;;;;10.73;1.80;;;7.10;99.90;;;;;;5025115;28;20104;-84
2021/03/12 01:26:18;;;;;;;12.50;2.50;;;7.00;99.90;;;;;;5012092;28;20103;-83
2021/03/12 01:28:43;;;;;;;13.48;2.83;;;7.00;99.90;;;;;;4991909;28;20038;-84
2021/03/12 01:31:09;;;;;;;13.77;2.70;;;7.00;99.90;;;;;;5008649;28;20065;-84
2021/03/12 01:33:34;;;;;;;10.57;2.60;;;7.00;99.90;;;;;;5008641;28;20038;-84
2021/03/12 01:36:00;;;;;;;16.10;2.53;;;7.10;99.90;;;;;;5008569;28;20400;-83
2021/03/12 01:38:26;;;;;;;8.70;2.17;;;7.00;99.90;;;;;;5007804;28;20575;-84
2021/03/12 01:40:51;;;;;;;16.00;2.85;;;7.10;99.90;;;;;;4991923;28;20107;-83
2021/03/12 01:43:18;;;;;;;13.77;2.70;;;7.10;99.90;;;;;;4993951;28;20049;-85
2021/03/12 01:45:49;;;;;;;13.48;2.95;;;7.10;99.90;;;;;;5012184;28;20542;-85
2021/03/12 01:48:23;;;;;;;11.57;3.10;;;7.10;99.90;;;;;;4994150;28;20511;-84
2021/03/12 01:50:56;;;;;;;11.75;2.53;;;7.10;99.90;;;;;;5013230;28;20048;-84
2021/03/12 01:53:22;;;;;;;11.17;2.67;;;7.10;99.90;;;;;;5016169;28;20029;-84
2021/03/12 01:55:49;;;;;;;17.73;2.72;;;7.10;99.90;;;;;;5028760;28;20422;-85
2021/03/12 01:58:16;;;;;;;11.50;2.67;;;7.00;99.90;;;;;;5007630;28;20030;-86
2021/03/12 02:00:42;;;;;;;10.63;2.28;;;7.00;99.90;;;;;;5023987;28;20514;-85
2021/03/12 02:03:09;;;;;;;15.60;2.90;;;7.00;99.90;;;;;;5023776;28;20034;-85
2021/03/12 02:05:36;;;;;;;13.32;2.50;;;7.00;99.90;;;;;;4998950;28;20029;-85
2021/03/12 02:08:03;;;;;;;15.10;3.30;;;7.00;99.90;;;;;;4998828;28;20038;-84
2021/03/12 02:10:29;;;;;;;16.55;2.95;;;6.90;99.90;;;;;;4999356;28;20066;-84
2021/03/12 02:13:06;;;;;;;14.18;3.00;;;6.90;99.90;;;;;;5016810;28;20030;-84
2021/03/12 02:15:51;;;;;;;10.50;2.80;;;6.90;99.90;;;;;;5001803;28;20030;-85
2021/03/12 02:18:26;;;;;;;15.45;2.92;;;6.90;99.90;;;;;;5004309;28;20127;-84
2021/03/12 02:20:58;;;;;;;12.73;2.35;;;6.90;99.90;;;;;;5031500;28;20111;-84
2021/03/12 02:23:41;;;;;;;13.52;2.95;;;6.90;99.90;;;;;;5021164;28;20392;-84
2021/03/12 02:26:29;;;;;;;8.38;2.65;;;6.90;99.90;;;;;;5005430;28;20100;-83
2021/03/12 02:28:56;;;;;;;15.02;3.40;;;6.90;99.90;;;;;;5000189;28;20391;-83
2021/03/12 02:31:22;;;;;;;12.70;2.88;;;6.90;99.90;;;;;;5018744;28;20040;-83
2021/03/12 02:33:49;;;;;;;11.98;2.92;;;6.90;99.90;;;;;;5016196;28;20539;-82
2021/03/12 02:36:18;;;;;;;15.38;2.70;;;6.90;99.90;;;;;;5004100;28;20034;-83
2021/03/12 02:38:44;;;;;;;14.80;3.40;;;6.80;99.90;;;;;;5031211;28;20180;-83
2021/03/12 02:41:10;;;;;;;12.35;3.15;;;6.90;99.90;;;;;;5001208;28;20112;-84
2021/03/12 02:43:37;;;;;;;9.98;2.60;;;6.90;99.90;;;;;;5027086;28;20038;-84
2021/03/12 02:46:03;;;;;;;14.93;2.50;;;6.90;99.90;;;;;;5008019;28;20121;-83
2021/03/12 02:48:30;;;;;;;16.17;2.97;;;6.80;99.90;;;;;;5001550;28;20038;-84
2021/03/12 02:50:56;;;;;;;18.35;2.85;;;6.80;99.90;;;;;;5013258;28;20438;-83
2021/03/12 02:53:22;;;;;;;16.23;2.85;;;6.80;99.90;;;;;;5002310;28;20079;-83
2021/03/12 02:55:47;;;;;;;15.25;2.80;;;6.80;99.90;;;;;;5025268;28;20113;-84
2021/03/12 02:58:14;;;;;;;12.18;2.38;;;6.70;99.90;;;;;;5027042;28;20451;-83
2021/03/12 03:00:40;;;;;;;12.63;2.63;;;6.80;99.90;;;;;;5018089;28;20037;-83
2021/03/12 03:03:08;;;;;;;13.70;2.47;;;6.70;99.90;;;;;;4984131;28;20028;-83
2021/03/12 03:05:33;;;;;;;14.52;2.33;;;6.70;99.90;;;;;;5009099;28;20026;-83
2021/03/12 03:08:00;;;;;;;12.65;2.47;;;6.70;99.90;;;;;;5007231;28;20723;-84
2021/03/12 03:10:26;;;;;;;20.08;3.75;;;6.70;99.90;;;;;;5001652;28;20049;-84
2021/03/12 03:12:53;;;;;;;11.02;3.15;;;6.70;99.90;;;;;;5014808;28;20088;-85
2021/03/12 03:15:21;;;;;;;14.98;2.53;;;6.70;99.90;;;;;;5010986;28;20546;-83
2021/03/12 03:17:48;;;;;;;13.48;2.63;;;6.70;99.90;;;;;;5022936;28;20034;-84
2021/03/12 03:20:15;;;;;;;8.05;2.03;;;6.70;99.90;;;;;;5003665;28;20026;-82
2021/03/12 03:22:44;;;;;;;14.45;2.92;;;6.70;99.90;;;;;;5012652;28;20223;-83
2021/03/12 03:25:10;;;;;;;14.05;2.75;;;6.70;99.90;;;;;;5000139;28;20021;-83
2021/03/12 03:27:37;;;;;;;9.98;2.95;;;6.70;99.90;;;;;;5026054;28;20077;-83
2021/03/12 03:30:09;;;;;;;15.98;3.35;;;6.70;99.90;;;;;;5007141;28;20049;-83
2021/03/12 03:32:35;;;;;;;11.45;2.05;;;6.60;99.90;;;;;;5018008;28;20034;-84
2021/03/12 03:35:01;;;;;;;16.00;3.35;;;6.60;99.90;;;;;;5012282;28;20041;-84
2021/03/12 03:37:30;;;;;;;14.77;2.40;;;6.70;99.90;;;;;;5020132;28;20025;-83
2021/03/12 03:39:55;;;;;;;12.75;2.42;;;6.60;99.90;;;;;;5005294;28;20589;-84
2021/03/12 03:42:25;;;;;;;11.60;2.40;;;6.60;99.90;;;;;;5013906;28;20074;-84
2021/03/12 03:44:52;;;;;;;14.20;2.60;;;6.60;99.90;;;;;;5031517;28;20494;-83
2021/03/12 03:47:19;;;;;;;12.10;2.50;;;6.60;99.90;;;;;;5028076;28;20040;-83
2021/03/12 03:49:45;;;;;;;9.30;2.53;;;6.60;99.90;;;;;;5004604;28;20037;-84
2021/03/12 03:52:11;;;;;;;11.93;2.22;;;6.60;99.90;;;;;;5003147;28;20087;-83
2021/03/12 03:54:38;;;;;;;13.70;2.42;;;6.50;99.90;;;;;;5029478;28;20033;-84
2021/03/12 03:57:05;;;;;;;12.32;2.10;;;6.50;99.90;;;;;;4999423;28;20029;-83
2021/03/12 03:59:31;;;;;;;10.07;2.00;;;6.50;99.90;;;;;;5026205;28;20092;-83
2021/03/12 04:01:58;;;;;;;14.98;3.67;;;6.40;99.90;;;;;;5023637;28;20029;-85
2021/03/12 04:04:24;;;;;;;12.43;2.05;;;6.30;99.90;;;;;;5018601;28;20061;-84
2021/03/12 04:06:49;;;;;;;14.50;3.25;;;6.30;99.90;;;;;;5011831;28;20029;-83
2021/03/12 04:09:16;;;;;;;11.85;1.80;;;6.20;99.90;;;;;;5017715;28;20052;-84
2021/03/12 04:11:43;;;;;;;13.85;1.88;;;6.20;99.90;;;;;;5024793;28;20121;-83
2021/03/12 04:14:09;;;;;;;9.88;2.13;;;6.10;99.90;;;;;;4995747;28;20041;-83
2021/03/12 04:16:36;;;;;;;12.45;2.17;;;6.00;99.90;;;;;;5028793;28;20086;-85
2021/03/12 04:19:02;;;;;;;11.85;2.83;;;5.90;99.90;;;;;;4999064;28;20479;-85
2021/03/12 04:21:29;;;;;;;10.30;1.92;;;5.80;99.90;;;;;;5026200;28;20149;-84
2021/03/12 04:23:55;;;;;;;8.20;2.17;;;5.70;99.90;;;;;;5005453;28;20506;-84
2021/03/12 04:26:21;;;;;;;9.93;1.88;;;5.70;99.90;;;;;;5019177;28;20081;-83
2021/03/12 04:28:47;;;;;;;11.77;2.47;;;5.60;99.90;;;;;;5028827;28;20479;-83
2021/03/12 04:31:13;;;;;;;9.05;1.67;;;5.50;99.90;;;;;;5017423;28;20502;-84
2021/03/12 04:33:40;;;;;;;10.85;1.90;;;5.50;99.90;;;;;;5007074;28;20022;-84
2021/03/12 04:36:07;;;;;;;12.02;2.28;;;5.50;99.90;;;;;;5024064;28;20026;-84
2021/03/12 04:38:33;;;;;;;10.60;2.08;;;5.50;99.90;;;;;;4999750;28;20026;-83
2021/03/12 04:41:00;;;;;;;13.05;2.85;;;5.50;99.90;;;;;;5011169;28;20137;-83
2021/03/12 04:43:26;;;;;;;11.35;2.10;;;5.50;99.90;;;;;;5000995;28;20515;-83
2021/03/12 04:45:52;;;;;;;14.75;1.98;;;5.50;99.90;;;;;;5004842;28;20030;-82
2021/03/12 04:48:18;;;;;;;8.88;1.73;;;5.50;99.90;;;;;;5019598;28;20030;-83
2021/03/12 04:50:44;;;;;;;13.68;1.98;;;5.40;99.90;;;;;;5010995;28;20060;-83
2021/03/12 04:53:11;;;;;;;11.75;1.83;;;5.40;99.90;;;;;;4998826;28;20376;-82
2021/03/12 04:55:37;;;;;;;9.27;2.00;;;5.40;99.90;;;;;;5024502;28;20029;-83
2021/03/12 04:58:03;;;;;;;11.60;1.90;;;5.30;99.90;;;;;;5023195;28;20040;-83
2021/03/12 05:00:31;;;;;;;11.70;1.80;;;5.20;99.90;;;;;;5017525;28;20129;-83
2021/03/12 05:02:56;;;;;;;15.80;2.50;;;5.20;99.90;;;;;;5011005;28;20056;-83
2021/03/12 05:05:23;;;;;;;15.95;2.58;;;5.20;99.90;;;;;;5000140;28;20064;-84
2021/03/12 05:07:49;;;;;;;14.68;2.58;;;5.10;99.90;;;;;;5022722;28;20630;-83
2021/03/12 05:10:15;;;;;;;14.48;2.55;;;5.10;99.90;;;;;;5007108;28;20538;-84
2021/03/12 05:12:41;;;;;;;8.57;2.25;;;5.10;99.90;;;;;;4997892;28;20026;-83
2021/03/12 05:15:07;;;;;;;11.63;1.92;;;5.10;99.90;;;;;;5010537;28;20077;-82
2021/03/12 05:17:33;;;;;;;11.07;2.13;;;5.10;99.90;;;;;;5005028;28;20033;-83
2021/03/12 05:19:59;;;;;;;11.57;2.83;;;5.10;99.90;;;;;;5007607;28;20030;-83
2021/03/12 05:22:24;;;;;;;9.27;2.22;;;5.00;99.90;;;;;;5012589;28;20040;-84
2021/03/12 05:24:50;;;;;;;12.90;2.72;;;5.00;99.90;;;;;;5016725;28;20033;-83
2021/03/12 05:27:16;;;;;;;11.25;2.03;;;5.00;99.90;;;;;;5001170;28;20543;-82
2021/03/12 05:29:41;;;;;;;15.85;2.47;;;5.00;99.90;;;;;;5023968;28;20046;-83
2021/03/12 05:32:07;;;;;;;11.45;2.97;;;5.00;99.90;;;;;;5023889;28;20116;-83
2021/03/12 05:34:33;;;;;;;11.70;2.20;;;5.00;99.90;;;;;;5013427;28;20029;-83
2021/03/12 05:36:58;;;;;;;12.50;2.45;;;5.00;99.90;;;;;;5018651;28;20116;-83
2021/03/12 05:39:24;;;;;;;15.55;2.70;;;4.90;99.90;;;;;;5029485;28;20054;-83
2021/03/12 05:41:51;;;;;;;12.80;2.33;;;4.90;99.90;;;;;;5007892;28;20452;-83
2021/03/12 05:44:17;;;;;;;16.30;2.58;;;5.00;99.90;;;;;;5004742;28;20480;-83
2021/03/12 05:46:43;;;;;;;12.32;2.58;;;4.90;99.90;;;;;;5014356;28;20030;-83
2021/03/12 05:49:10;;;;;;;8.90;2.33;;;4.90;99.90;;;;;;5001726;28;20021;-83
2021/03/12 05:51:36;;;;;;;15.38;2.60;;;4.90;99.90;;;;;;5027972;28;20030;-83
2021/03/12 05:54:05;;;;;;;13.88;2.40;;;4.90;99.90;;;;;;5026561;28;20037;-84
2021/03/12 05:56:35;;;;;;;16.67;2.97;;;4.90;99.90;;;;;;5020382;28;20070;-82
2021/03/12 05:59:03;;;;;;;9.90;2.03;;;5.00;99.90;;;;;;5031409;28;20045;-83
2021/03/12 06:01:31;;;;;;;11.57;2.13;;;4.90;99.90;;;;;;5015472;28;20038;-83
2021/03/12 06:03:56;;;;;;;14.48;2.50;;;4.90;99.90;;;;;;5008075;28;20033;-84
2021/03/12 06:06:22;;;;;;;11.43;2.85;;;5.00;99.90;;;;;;5017378;28;20033;-83
2021/03/12 06:08:48;;;;;;;14.77;2.50;;;4.90;99.90;;;;;;5016246;28;20234;-84
2021/03/12 06:11:14;;;;;;;14.93;2.90;;;4.90;99.90;;;;;;5016220;28;20481;-83
2021/03/12 06:13:47;;;;;;;15.02;2.88;;;5.00;99.90;;;;;;5010834;28;20025;-88
2021/03/12 06:16:26;;;;;;;12.77;2.80;;;5.00;99.90;;;;;;5036821;28;20033;-87
2021/03/12 06:19:12;;;;;;;9.40;2.70;;;5.00;99.90;;;;;;4996589;28;20033;-85
2021/03/12 06:21:39;;;;;;;20.58;3.17;;;5.00;99.90;;;;;;5003961;28;20037;-85
2021/03/12 06:24:28;;;;;;;12.35;2.50;;;5.00;99.90;;;;;;5005519;28;20040;-84
2021/03/12 06:26:55;;;;;;;11.30;2.83;;;5.00;99.90;;;;;;5001520;28;20026;-83
2021/03/12 06:29:37;;;;;;;10.40;2.92;;;5.00;99.90;;;;;;5029402;28;20434;-84
2021/03/12 06:32:05;;;;;;;10.95;2.63;;;5.10;99.90;;;;;;5008479;28;20029;-84
2021/03/12 06:34:31;;;;;;;15.55;4.15;;;5.10;99.90;;;;;;5020137;28;20042;-84
2021/03/12 06:36:57;;;;;;;17.08;3.05;;;5.10;99.90;;;;;;5016204;28;20388;-84
2021/03/12 06:39:34;;;;;;;14.27;2.80;;;5.20;99.90;;;;;;5015300;28;20052;-85
2021/03/12 06:42:07;;;;;;;13.85;3.10;;;5.10;99.90;;;;;;5015350;28;20088;-85
2021/03/12 06:44:36;;;;;;;14.27;3.20;;;5.10;99.90;;;;;;5015389;28;20117;-85
2021/03/12 06:47:05;;;;;;;19.90;3.38;;;5.10;99.90;;;;;;4998392;28;20026;-84
2021/03/12 06:49:31;;;;;;;14.68;2.70;;;5.10;99.90;;;;;;4997521;28;20077;-84
2021/03/12 06:52:00;;;;;;;15.48;3.08;;;5.10;99.90;;;;;;4981356;28;20065;-83
2021/03/12 06:54:29;;;;;;;12.05;3.08;;;5.20;99.90;;;;;;4997115;28;20029;-83
2021/03/12 06:56:55;;;;;;;18.63;4.32;;;5.20;99.90;;;;;;5015997;28;20038;-84
2021/03/12 06:59:32;;;;;;;14.98;3.10;;;5.20;99.90;;;;;;5014857;28;20480;-83
2021/03/12 07:02:06;;;;;;;17.65;4.38;;;5.10;99.90;;;;;;4997593;28;20025;-84
2021/03/12 07:04:32;;;;;;;15.05;3.25;;;5.10;99.90;;;;;;5029177;28;20039;-84
2021/03/12 07:06:59;;;;;;;13.15;2.90;;;5.10;99.90;;;;;;5032136;28;20418;-83
2021/03/12 07:09:27;;;;;;;13.43;3.40;;;5.20;99.90;;;;;;5015136;28;20049;-84
2021/03/12 07:11:58;;;;;;;11.55;2.90;;;5.20;99.90;;;;;;5033990;28;20049;-85
2021/03/12 07:14:25;;;;;;;14.10;3.00;;;5.20;99.90;;;;;;5033074;28;20040;-85
2021/03/12 07:16:52;;;;;;;13.70;3.22;;;5.20;99.90;;;;;;5031956;28;20082;-85
2021/03/12 07:19:21;;;;;;;13.50;2.45;;;5.30;99.90;;;;;;5015075;28;20057;-85
2021/03/12 07:21:50;;;;;;;13.98;3.28;;;5.40;99.90;;;;;;5014896;28;20040;-84
2021/03/12 07:24:24;;;;;;;13.73;3.47;;;5.50;99.90;;;;;;5032727;28;20063;-85
2021/03/12 07:26:57;;;;;;;14.98;3.20;;;5.60;99.90;;;;;;5014650;28;20036;-86
2021/03/12 07:29:28;;;;;;;15.50;3.72;;;5.70;99.90;;;;;;5001373;28;20403;-86
2021/03/12 07:31:55;;;;;;;22.65;3.53;;;5.70;99.90;;;;;;5024274;28;20111;-87
2021/03/12 07:34:41;;;;;;;15.50;2.97;;;5.70;99.90;;;;;;5014402;28;20041;-86
2021/03/12 07:37:09;;;;;;;17.85;2.97;;;5.80;99.90;;;;;;5014738;28;20041;-85
2021/03/12 07:39:44;;;;;;;15.68;2.88;;;5.90;99.90;;;;;;4992868;28;20051;-85
2021/03/12 07:42:15;;;;;;;19.90;2.85;;;6.00;99.90;;;;;;4994871;28;20034;-85
2021/03/12 07:44:46;;;;;;;18.42;2.90;;;6.10;99.90;;;;;;4993511;28;20136;-85
2021/03/12 07:47:17;;;;;;;14.02;2.58;;;6.10;99.90;;;;;;5008390;28;20029;-85
2021/03/12 07:49:44;;;;;;;17.45;3.03;;;6.20;99.90;;;;;;5004674;28;20121;-84
2021/03/12 07:52:09;;;;;;;19.13;2.83;;;6.30;99.90;;;;;;5005878;28;20096;-86
2021/03/12 07:54:41;;;;;;;11.45;2.75;;;6.40;99.90;;;;;;5012329;28;20038;-85
2021/03/12 07:57:14;;;;;;;16.10;3.35;;;6.40;99.90;;;;;;5007987;28;20057;-86
2021/03/12 07:59:49;;;;;;;16.25;2.75;;;6.50;99.90;;;;;;4994512;28;20034;-84
2021/03/12 08:02:16;;;;;;;21.60;3.67;;;6.50;99.90;;;;;;4994192;28;20099;-85
2021/03/12 08:04:43;;;;;;;19.42;3.70;;;6.50;99.90;;;;;;4998017;28;20483;-83
2021/03/12 08:07:20;;;;;;;15.07;2.53;;;6.60;99.90;;;;;;5002317;28;20026;-86
2021/03/12 08:09:56;;;;;;;17.77;3.35;;;6.60;99.90;;;;;;4998488;28;20061;-84
2021/03/12 08:12:36;;;;;;;17.17;3.15;;;6.70;99.90;;;;;;4992188;28;20033;-84
2021/03/12 08:15:21;;;;;;;13.10;2.75;;;6.80;99.90;;;;;;4994408;28;20499;-84
2021/03/12 08:18:09;;;;;;;12.68;2.75;;;6.80;99.90;;;;;;4992724;28;20034;-83
2021/03/12 08:20:43;;;;;;;20.80;3.03;;;6.90;99.90;;;;;;5004934;28;20042;-89
2021/03/12 08:23:14;;;;;;;15.18;2.60;;;7.00;99.90;;;;;;4978045;28;20030;-88
2021/03/12 08:25:40;;;;;;;18.45;3.13;;;7.10;99.90;;;;;;5001484;28;20026;-85
2021/03/12 08:28:11;;;;;;;20.33;3.92;;;7.20;99.90;;;;;;4991295;28;20547;-86
2021/03/12 08:30:40;;;;;;;22.05;3.53;;;7.30;99.90;;;;;;4991021;28;20042;-87
2021/03/12 08:33:27;;;;;;;15.55;3.17;;;7.30;99.90;;;;;;4992695;28;20033;-87
2021/03/12 08:35:56;;;;;;;20.77;3.50;;;7.30;99.90;;;;;;5000223;28;20022;-87
2021/03/12 08:38:25;;;;;;;18.23;3.33;;;7.40;99.90;;;;;;4997568;28;20108;-90
2021/03/12 08:41:02;;;;;;;14.30;2.97;;;7.50;99.90;;;;;;4991486;28;20062;-88
2021/03/12 08:43:29;;;;;;;18.25;4.18;;;7.60;99.90;;;;;;5005241;28;20037;-90
2021/03/12 08:46:03;;;;;;;19.42;3.28;;;7.70;99.90;;;;;;5001173;28;20046;-87
2021/03/12 08:48:30;;;;;;;20.23;3.72;;;7.90;99.90;;;;;;4992505;28;20555;-89
2021/03/12 08:50:59;;;;;;;15.38;2.80;;;8.00;99.90;;;;;;4993483;28;20065;-89
2021/03/12 08:53:27;;;;;;;19.33;4.13;;;8.00;99.90;;;;;;5008204;28;20030;-89
2021/03/12 08:55:56;;;;;;;18.75;4.18;;;8.10;99.90;;;;;;5000339;28;20069;-89
2021/03/12 08:58:23;;;;;;;20.50;3.38;;;8.30;99.90;;;;;;4992736;28;20480;-88
2021/03/12 09:00:52;;;;;;;15.10;3.42;;;8.50;99.90;;;;;;4992855;28;20153;-88
2021/03/12 09:03:34;;;;;;;18.92;4.15;;;8.70;99.90;;;;;;5010566;28;20034;-87
2021/03/12 09:06:05;;;;;;;18.85;3.90;;;8.70;99.90;;;;;;5008094;28;20527;-84
2021/03/12 09:08:31;;;;;;;20.45;4.53;;;8.80;99.90;;;;;;5006528;28;20129;-84
2021/03/12 09:10:58;;;;;;;20.65;3.90;;;8.80;99.90;;;;;;5007794;28;20049;-88
2021/03/12 09:13:27;;;;;;;21.33;4.53;;;8.80;99.90;;;;;;4988844;28;20034;-85
2021/03/12 09:15:53;;;;;;;17.83;4.00;;;8.90;99.90;;;;;;4990709;28;20034;-83
2021/03/12 09:18:25;;;;;;;20.35;4.82;;;8.90;99.90;;;;;;4991402;28;20050;-84
2021/03/12 09:20:59;;;;;;;17.75;4.03;;;9.00;99.90;;;;;;5006232;28;20030;-84
2021/03/12 09:23:44;;;;;;;15.90;3.75;;;9.20;99.90;;;;;;5004563;28;20504;-85
2021/03/12 09:26:21;;;;;;;20.75;4.38;;;9.40;99.90;;;;;;5009359;28;20826;-85
2021/03/12 09:28:50;;;;;;;23.15;5.28;;;9.40;99.90;;;;;;4993650;28;20112;-84
2021/03/12 09:31:17;;;;;;;20.17;3.30;;;9.20;99.90;;;;;;4992465;28;20026;-87
2021/03/12 09:33:50;;;;;;;27.92;5.32;;;9.10;99.90;;;;;;5003463;28;20502;-83
2021/03/12 09:36:37;;;;;;;19.38;4.30;;;9.00;99.90;;;;;;5008518;28;20069;-85
2021/03/12 09:39:22;;;;;;;19.55;3.97;;;8.90;99.90;;;;;;5013545;28;20057;-85
2021/03/12 09:42:00;;;;;;;19.23;3.92;;;8.80;99.90;;;;;;5004559;28;20545;-84
2021/03/12 09:44:27;;;;;;;17.92;4.43;;;8.80;99.90;;;;;;5025310;28;20038;-83
2021/03/12 09:47:04;;;;;;;17.00;4.18;;;8.70;99.90;;;;;;4994482;28;20029;-84
2021/03/12 09:49:32;;;;;;;22.77;4.53;;;8.60;99.90;;;;;;5016548;28;20064;-85
2021/03/12 09:52:01;;;;;;;17.20;4.43;;;8.50;99.90;;;;;;5028959;28;20547;-84
2021/03/12 09:54:30;;;;;;;16.73;3.78;;;8.50;99.90;;;;;;4999076;28;20038;-85
2021/03/12 09:56:57;;;;;;;20.70;4.43;;;8.40;99.90;;;;;;4995569;28;20044;-85
2021/03/12 09:59:27;;;;;;;19.10;3.67;;;8.50;99.90;;;;;;5025578;28;20034;-83
2021/03/12 10:01:53;;;;;;;21.65;4.07;;;8.60;99.90;;;;;;5015281;28;20045;-85
2021/03/12 10:04:38;;;;;;;15.70;4.30;;;8.60;99.90;;;;;;4997474;28;20462;-86
2021/03/12 10:07:10;;;;;;;21.90;4.93;;;8.60;99.90;;;;;;5007753;28;20067;-85
2021/03/12 10:09:41;;;;;;;17.35;3.20;;;8.60;99.90;;;;;;5004317;28;20060;-88
2021/03/12 10:12:16;;;;;;;15.55;3.70;;;8.70;99.90;;;;;;5005032;28;20037;-86
2021/03/12 10:14:44;;;;;;;18.45;3.40;;;8.70;99.90;;;;;;5031121;28;20100;-84
2021/03/12 10:17:28;;;;;;;25.05;4.00;;;8.70;99.90;;;;;;4998925;28;20038;-89
2021/03/12 10:19:54;;;;;;;22.65;4.35;;;8.60;99.90;;;;;;5014630;28;20022;-89
2021/03/12 10:22:28;;;;;;;17.92;3.65;;;8.60;99.90;;;;;;5008677;28;20120;-88
2021/03/12 10:25:09;;;;;;;17.50;3.80;;;8.60;99.90;;;;;;5008708;28;20044;-88
2021/03/12 10:27:38;;;;;;;21.10;3.40;;;8.60;99.90;;;;;;5016813;28;20465;-88
2021/03/12 10:30:09;;;;;;;20.20;4.78;;;8.50;99.90;;;;;;5018138;28;20041;-87
2021/03/12 10:32:46;;;;;;;19.15;3.55;;;8.20;99.90;;;;;;5017721;28;20652;-86
2021/03/12 10:35:26;;;;;;;20.52;4.65;;;8.00;99.90;;;;;;4985550;28;20038;-87
2021/03/12 10:37:54;;;;;;;19.13;4.25;;;7.70;99.90;;;;;;5007386;28;20038;-86
2021/03/12 10:40:21;;;;;;;17.42;3.97;;;7.50;99.90;;;;;;5006871;28;20479;-86
2021/03/12 10:42:47;;;;;;;19.50;4.30;;;7.30;99.90;;;;;;5018416;28;20053;-86
2021/03/12 10:45:27;;;;;;;15.70;3.88;;;7.20;99.90;;;;;;5009184;28;20030;-89
2021/03/12 10:48:05;;;;;;;22.70;4.07;;;7.20;99.90;;;;;;5002523;28;20788;-86
2021/03/12 10:50:36;;;;;;;24.83;4.53;;;7.30;99.90;;;;;;5001400;28;20125;-86
2021/03/12 10:53:10;;;;;;;15.88;3.97;;;7.30;99.90;;;;;;5028124;28;20045;-86
2021/03/12 10:55:39;;;;;;;15.23;3.05;;;7.30;99.90;;;;;;5020658;28;20107;-85
2021/03/12 10:58:05;;;;;;;20.45;3.17;;;7.30;99.90;;;;;;5001011;28;20045;-86
2021/03/12 11:00:31;;;;;;;16.50;3.97;;;7.30;99.90;;;;;;5002300;28;20618;-87
2021/03/12 11:02:59;;;;;;;20.27;4.13;;;7.20;99.90;;;;;;4982144;28;20038;-88
2021/03/12 11:05:25;;;;;;;19.80;3.92;;;7.10;99.90;;;;;;5005060;28;20553;-88
2021/03/12 11:07:52;;;;;;;16.35;3.83;;;7.10;99.90;;;;;;5014585;28;20072;-83
2021/03/12 11:10:18;;;;;;;21.08;4.13;;;7.00;99.90;;;;;;5015534;28;20054;-84
2021/03/12 11:12:49;;;;;;;18.25;3.40;;;7.00;99.90;;;;;;5016611;28;20026;-87
2021/03/12 11:15:17;;;;;;;15.82;4.75;;;6.90;99.90;;;;;;5002397;28;20037;-87
2021/03/12 11:17:47;;;;;;;17.40;4.13;;;6.80;99.90;;;;;;5022395;28;20026;-89
2021/03/12 11:20:16;;;;;;;21.02;4.43;;;6.80;99.90;;;;;;4996212;28;20040;-87
2021/03/12 11:22:42;;;;;;;18.42;3.88;;;6.80;99.90;;;;;;5022966;28;20029;-83
2021/03/12 11:25:08;;;;;;;13.13;3.88;;;6.80;99.90;;;;;;5031202;28;20080;-86
2021/03/12 11:27:35;;;;;;;17.17;4.68;;;6.90;99.90;;;;;;5014797;28;20084;-86
2021/03/12 11:30:06;;;;;;;18.27;4.75;;;7.00;99.90;;;;;;5015846;28;20117;-86
2021/03/12 11:32:32;;;;;;;22.38;4.95;;;7.30;99.90;;;;;;5023670;28;20030;-87
2021/03/12 11:34:58;;;;;;;21.08;4.93;;;7.40;99.90;;;;;;5024287;28;20026;-85
2021/03/12 11:37:24;;;;;;;26.00;5.50;;;7.60;99.90;;;;;;5015100;28;20057;-88
2021/03/12 11:39:49;;;;;;;25.30;5.20;;;8.10;99.90;;;;;;5000343;28;20084;-86
2021/03/12 11:42:15;;;;;;;23.85;4.78;;;8.60;99.90;;;;;;5013598;28;20416;-86
2021/03/12 11:44:41;;;;;;;16.55;3.85;;;8.70;99.90;;;;;;5014914;28;20041;-87
2021/03/12 11:47:06;;;;;;;17.45;5.55;;;8.70;99.90;;;;;;4997538;28;20179;-85
2021/03/12 11:49:32;;;;;;;17.95;4.30;;;8.60;99.90;;;;;;5014871;28;20042;-85
2021/03/12 11:51:58;;;;;;;19.95;4.88;;;8.50;99.90;;;;;;4997170;28;20120;-86
2021/03/12 11:54:24;;;;;;;20.55;4.53;;;8.50;99.90;;;;;;5017971;28;20191;-85
2021/03/12 11:56:49;;;;;;;17.95;4.03;;;8.60;99.90;;;;;;4976779;28;20041;-85
2021/03/12 11:59:15;;;;;;;17.42;4.32;;;8.60;99.90;;;;;;5003422;28;20036;-86
2021/03/12 12:01:41;;;;;;;15.48;3.33;;;8.50;99.90;;;;;;5007306;28;20125;-87
2021/03/12 12:04:06;;;;;;;10.68;3.53;;;8.50;99.90;;;;;;5007694;28;20061;-84
2021/03/12 12:06:32;;;;;;;10.75;3.65;;;8.60;99.90;;;;;;5031429;28;20036;-84
2021/03/12 12:10:20;;;;;;;;;;;;;;;;;;;;;
2021/03/12 12:20:35;;;;;;;15.50;2.75;;;10.50;99.90;;;;;;4924979;29;20701;-84
2021/03/12 12:23:56;;;;;;;13.88;2.97;;;10.60;99.90;;;;;;4939202;29;20333;-88
2021/03/12 12:26:40;;;;;;;;;;;;;;;;;;;;;
2021/03/12 12:29:50;;;;;;;;;;;;;;;;;;;;;
2021/03/12 12:32:54;;;;;;;;;;;;;;;;;;;;;
2021/03/12 12:35:21;;;;;;;12.63;2.60;;;9.30;99.90;;;;;;4835021;29;20042;-86
2021/03/12 12:37:46;;;;;;;10.63;2.55;;;9.30;99.90;;;;;;4912135;29;20170;-85
2021/03/12 12:40:13;;;;;;;14.07;2.92;;;9.30;99.90;;;;;;4963558;28;20049;-85
2021/03/12 12:42:38;;;;;;;12.80;2.60;;;9.20;99.90;;;;;;5035247;28;20042;-87
2021/03/12 12:45:04;;;;;;;12.00;2.80;;;9.20;99.90;;;;;;5018207;28;20127;-83
2021/03/12 12:47:30;;;;;;;11.38;3.10;;;9.10;99.90;;;;;;5035235;28;20060;-84
2021/03/12 12:49:58;;;;;;;15.27;2.78;;;8.90;99.90;;;;;;5026235;28;20045;-85
2021/03/12 12:52:28;;;;;;;14.43;2.83;;;8.70;99.90;;;;;;5021777;28;20026;-85
2021/03/12 12:55:11;;;;;;;14.68;3.05;;;8.50;99.90;;;;;;5026316;28;20041;-85
2021/03/12 12:57:45;;;;;;;12.68;2.90;;;8.20;99.90;;;;;;5027015;28;20021;-83
2021/03/12 13:04:37;;;;;;;14.25;2.42;;;8.20;99.90;;;;;;4941431;29;20098;-84
2021/03/12 13:07:54;;;;;;;11.43;2.72;;;8.20;99.90;;;;;;4907761;29;20072;-87
2021/03/12 13:10:22;;;;;;;16.83;3.80;;;8.40;99.90;;;;;;4874420;29;20490;-85
2021/03/12 13:13:31;;;;;;;;;;;;;;;;;;;;;
2021/03/12 13:15:58;;;;;;;13.00;2.67;;;8.50;99.90;;;;;;4971346;28;20039;-83
2021/03/12 13:18:27;;;;;;;13.20;2.75;;;8.60;99.90;;;;;;4957011;28;20031;-86